KORF/ORF METAR and TAF weather

Enter ICAO airport designator
Station Type Date Time Source
KORF METAR 2020/04/03 05:51 UTC NOAA

KORF 030551Z VRB06KT 10SM CLR 13/02 A2982 RMK AO2 SLP096 T01280017 10156 20128 50002


Station Type Date Time Source
KORF Decoded METAR 2020/04/03 05:51 UTC NOAA

NORFOLK INTERNATIONAL AIRPORT , VA, United States (KORF) 36-54N 076-12W 14M
Apr 03, 2020 - 01:51 AM EDT / 2020.04.03 0551 UTC
Wind: Variable at 7 MPH (6 KT):0
Visibility: 10 mile(s):0
Sky conditions: clear
Temperature: 55.0 F (12.8 C)
Dew Point: 35.1 F (1.7 C)
Relative Humidity: 46%
Pressure (altimeter): 29.82 in. Hg (1009 hPa)
Pressure tendency: 0.01 inches (0.2 hPa) higher than three hours ago
ob: KORF 030551Z VRB06KT 10SM CLR 13/02 A2982 RMK AO2 SLP096 T01280017 10156 20128 50002
cycle: 6

Station Type Date Time Source
KORF TAF 2020/04/03 06:24 UTC NOAA

TAF KORF 030520Z 0306/0406 32007KT P6SM SKC
FM031400 32014G25KT P6SM SKC
FM031800 33017G27KT P6SM SCT060
FM040000 35011G17KT P6SM BKN060

Example: see airport list